Terminal Aerodrome Forecast
Issued by NWS Buffalo, NY

Home | Current Version | Previous Version | Text Only | Print | Product List | Glossary On
Versions: 1 2 3 4 5 6 7 8 9 10 11 12 13 14 15 16 17 18 19
914
FTUS41 KBUF 250250 AAA
TAFBUF
TAF AMD
KBUF 250250Z 2503/2524 08010KT P6SM BKN200
     FM251000 10008KT P6SM -SHRA OVC040
     FM251700 12008KT P6SM BKN040=

USA.gov is the U.S. government's official web portal to all federal, state and local government web resources and services.